Fort Lauderdale, FL (33312)

4:23 AM EST on February 14, 2016 (GMT -0500)
Lauderdale Isles | | Change Station
CLOSE
Current Station
Personal Weather Station
Location: Fort Lauderdale, FL
Elevation: 20 ft
Nearby Weather Stations

Elev 20 ft 26.09 °N, 80.20 °W | Updated 1 minute ago

Partly Cloudy
Partly Cloudy
57.9 °F
Feels Like 57.9 °F
N
0.0
Wind Variable Wind from North
Gusts 0.0 mph

Today
High -- | Low -- °F
--% Chance of Precip.
Yesterday
High -- | Low -- °F
Precip. -- in
Pressure 30.16 in
Visibility 10.0 miles
Clouds Few 3500 ft
Dew Point 48 °F
Humidity 70%
Rainfall 0.00 in
Snow Depth Not available.
6:57 AM 6:12 PM
Waxing Crescent, 40% visible
METAR KFLL 140853Z 35005KT 10SM FEW035 14/11 A3016 RMK AO2 SLP212 T01440106 56011
Pressure 30.16 in
Visibility 10.0 miles
Clouds Few 3500 ft
Dew Point 48 °F
Humidity 70%
Rainfall 0.00 in
Snow Depth Not available.
6:57 AM 6:12 PM
Waxing Crescent, 40% visible
METAR KFLL 140853Z 35005KT 10SM FEW035 14/11 A3016 RMK AO2 SLP212 T01440106 56011

10-Day Weather Forecast

Almanac

Astronomy

Feb. 14, 2016 Rise Set
Actual Time
Civil Twilight
Nautical Twilight
Astronomical Twilight
Moon
Length of Visible Light
Length of Day
Tomorrow will be .
, % of the Moon is Illuminated

Today's Extremes

State Highs State Lows

Community

WunderPhotos

Upload Photos

1,892,761 photos uploaded!

WunderBlog® & News

Nearby

Air Quality

  Air Quality AQ Index Pollutant
Not available.

Snow Depth

Station Depth Elevation

Earthquake Activity

City Distance Mag. Time & Date
Minimum magnitude displayed is 2.5.

Coastal Water Temperatures

Place Temperature

Stations

Nearby Weather Stations

Station Location Temp. Windchill Dew Point Humidity Wind Precip. Elev Updated Type
                   

Watches & Warnings

There are currently no watches in effect.